Time;durP1;ratioP1;P1;durP2;ratioP2;P2;SDS_P1;SDS_P2;PMS_P1;PMS_P2;Temp;Humidity;BMP_temperature;BMP_pressure;BME280_temperature;BME280_humidity;BME280_pressure;Samples;Min_cycle;Max_cycle;Signal;HPM_P1;HPM_P2
2021/04/11 00:00:37;;;;;;;2.30;1.60;;;6.70;81.10;;;;;;5072922;28;20028;-61
2021/04/11 00:03:06;;;;;;;4.25;1.92;;;6.70;81.10;;;;;;5073428;28;20514;-61
2021/04/11 00:05:35;;;;;;;1.00;0.90;;;6.70;81.20;;;;;;5073583;28;20034;-61
2021/04/11 00:08:03;;;;;;;2.63;1.75;;;6.60;81.20;;;;;;5072874;28;20056;-61
2021/04/11 00:10:32;;;;;;;7.05;2.03;;;6.70;81.50;;;;;;5073561;28;20503;-61
2021/04/11 00:12:58;;;;;;;4.78;2.17;;;6.60;81.30;;;;;;5073267;28;20040;-61
2021/04/11 00:15:24;;;;;;;5.35;2.53;;;6.60;81.50;;;;;;5072766;28;20036;-61
2021/04/11 00:17:50;;;;;;;3.15;1.48;;;6.60;81.60;;;;;;5073237;28;20036;-61
2021/04/11 00:20:16;;;;;;;1.42;1.25;;;6.60;81.80;;;;;;5073262;28;20021;-61
2021/04/11 00:22:44;;;;;;;3.13;1.42;;;6.60;81.80;;;;;;5072831;28;20043;-61
2021/04/11 00:25:16;;;;;;;1.85;1.17;;;6.60;81.90;;;;;;5073166;28;20031;-61
2021/04/11 00:27:43;;;;;;;1.30;1.20;;;6.60;81.90;;;;;;5073131;28;20078;-61
2021/04/11 00:30:10;;;;;;;3.95;2.05;;;6.60;81.90;;;;;;5072284;28;20028;-61
2021/04/11 00:32:41;;;;;;;2.53;1.38;;;6.60;82.00;;;;;;5072909;28;20041;-61
2021/04/11 00:35:09;;;;;;;1.75;1.35;;;6.60;81.90;;;;;;5073000;28;20050;-61
2021/04/11 00:37:35;;;;;;;1.83;1.27;;;6.60;81.80;;;;;;5072375;28;20041;-61
2021/04/11 00:40:01;;;;;;;5.13;1.92;;;6.70;81.90;;;;;;5072999;28;20039;-61
2021/04/11 00:42:34;;;;;;;4.57;2.00;;;6.60;81.90;;;;;;5073065;28;20089;-61
2021/04/11 00:45:23;;;;;;;5.07;1.80;;;6.60;82.00;;;;;;5072723;28;20048;-61
2021/04/11 00:47:50;;;;;;;3.33;1.75;;;6.60;82.00;;;;;;5054773;28;20036;-61
2021/04/11 00:50:17;;;;;;;1.65;1.40;;;6.60;82.20;;;;;;5072214;28;20028;-61
2021/04/11 00:52:44;;;;;;;3.17;2.13;;;6.50;82.40;;;;;;5054654;28;20391;-61
2021/04/11 00:55:12;;;;;;;6.75;1.42;;;6.50;82.60;;;;;;5085581;28;20048;-61
2021/04/11 00:57:40;;;;;;;3.90;1.58;;;6.50;82.60;;;;;;5092186;28;20089;-61
2021/04/11 01:00:07;;;;;;;2.38;1.20;;;6.50;82.70;;;;;;5091741;28;20510;-61
2021/04/11 01:02:33;;;;;;;3.67;1.17;;;6.50;82.70;;;;;;5092956;28;20115;-61
2021/04/11 01:04:59;;;;;;;6.03;1.75;;;6.50;82.50;;;;;;5090927;28;20197;-61
2021/04/11 01:07:29;;;;;;;2.42;1.40;;;6.60;82.60;;;;;;5091587;28;20530;-61
2021/04/11 01:09:55;;;;;;;1.02;1.02;;;6.50;82.60;;;;;;5091579;28;20023;-61
2021/04/11 01:12:23;;;;;;;1.55;1.25;;;6.60;82.70;;;;;;5079547;28;20621;-61
2021/04/11 01:14:51;;;;;;;1.98;1.33;;;6.50;82.80;;;;;;5089876;28;20031;-61
2021/04/11 01:17:22;;;;;;;2.90;1.45;;;6.50;82.80;;;;;;5091537;28;20506;-61
2021/04/11 01:19:52;;;;;;;2.15;1.17;;;6.50;83.00;;;;;;5090537;28;20174;-62
2021/04/11 01:23:02;;;;;;;1.10;1.10;;;6.50;82.80;;;;;;5092778;28;20110;-61
2021/04/11 01:25:32;;;;;;;3.40;1.00;;;6.50;82.80;;;;;;5091971;28;20086;-61
2021/04/11 01:28:05;;;;;;;1.75;1.17;;;6.50;82.80;;;;;;5092523;28;20036;-61
2021/04/11 01:30:35;;;;;;;3.92;1.63;;;6.50;82.70;;;;;;5091444;28;20028;-61
2021/04/11 01:33:07;;;;;;;1.50;0.85;;;6.50;82.80;;;;;;5090250;28;20084;-61
2021/04/11 01:35:36;;;;;;;3.22;0.98;;;6.50;82.80;;;;;;5091412;28;20479;-62
2021/04/11 01:38:04;;;;;;;1.55;1.25;;;6.50;82.90;;;;;;5091202;28;20028;-62
2021/04/11 01:40:45;;;;;;;0.77;0.77;;;6.50;83.00;;;;;;5094581;28;20126;-62
2021/04/11 01:43:12;;;;;;;2.47;0.93;;;6.50;83.00;;;;;;5095409;28;20031;-62
2021/04/11 01:45:41;;;;;;;7.55;1.38;;;6.50;83.10;;;;;;5095285;28;20506;-62
2021/04/11 01:48:12;;;;;;;1.00;0.90;;;6.50;83.10;;;;;;5094646;28;20119;-62
2021/04/11 01:50:39;;;;;;;1.13;1.10;;;6.60;83.20;;;;;;5096689;28;20028;-62
2021/04/11 01:53:07;;;;;;;5.15;1.70;;;6.50;83.20;;;;;;5095378;28;20051;-61
2021/04/11 01:55:33;;;;;;;2.65;1.27;;;6.50;83.30;;;;;;5096442;28;20437;-61
2021/04/11 01:58:01;;;;;;;2.28;1.15;;;6.50;83.10;;;;;;5096198;28;20035;-62
2021/04/11 02:00:38;;;;;;;0.82;0.82;;;6.50;83.30;;;;;;5094509;28;20028;-62
2021/04/11 02:03:09;;;;;;;1.05;0.93;;;6.50;83.50;;;;;;5094804;28;20024;-61
2021/04/11 02:05:39;;;;;;;2.25;0.95;;;6.50;83.50;;;;;;5095165;28;20028;-61
2021/04/11 02:08:07;;;;;;;4.15;1.10;;;6.50;83.40;;;;;;5095328;28;20024;-61
2021/04/11 02:10:52;;;;;;;1.20;1.10;;;6.50;83.60;;;;;;5096219;28;20038;-62
2021/04/11 02:13:24;;;;;;;2.17;0.80;;;6.50;83.50;;;;;;5094771;28;20465;-61
2021/04/11 02:15:59;;;;;;;4.13;0.98;;;6.50;83.50;;;;;;5092337;28;20016;-62
2021/04/11 02:18:28;;;;;;;1.10;0.80;;;6.50;83.30;;;;;;5095714;28;20063;-62
2021/04/11 02:21:00;;;;;;;3.30;0.80;;;6.40;83.30;;;;;;5080929;28;20397;-61
2021/04/11 02:23:28;;;;;;;1.88;1.10;;;6.50;83.50;;;;;;5094513;28;20028;-61
2021/04/11 02:25:55;;;;;;;1.58;1.10;;;6.40;83.60;;;;;;5094557;28;20024;-61
2021/04/11 02:28:27;;;;;;;2.13;1.00;;;6.40;83.70;;;;;;5095106;28;20032;-62
2021/04/11 02:31:18;;;;;;;3.28;1.48;;;6.40;83.70;;;;;;5084138;28;20111;-61
2021/04/11 02:33:59;;;;;;;0.68;0.65;;;6.40;83.80;;;;;;5083010;28;20089;-61
2021/04/11 02:36:27;;;;;;;2.40;1.10;;;6.40;83.60;;;;;;5093256;28;20036;-61
2021/04/11 02:38:56;;;;;;;2.35;1.00;;;6.40;83.90;;;;;;5095723;28;20028;-62
2021/04/11 02:41:23;;;;;;;2.85;1.20;;;6.40;83.90;;;;;;5095644;28;20111;-61
2021/04/11 02:43:49;;;;;;;2.45;0.95;;;6.40;84.00;;;;;;5093402;28;20411;-61
2021/04/11 02:46:16;;;;;;;1.10;1.00;;;6.40;84.00;;;;;;5095679;28;20097;-62
2021/04/11 02:48:42;;;;;;;3.10;0.90;;;6.40;84.10;;;;;;5095310;28;20024;-61
2021/04/11 02:51:21;;;;;;;1.23;0.90;;;6.40;83.80;;;;;;5093349;28;20024;-62
2021/04/11 02:53:55;;;;;;;8.07;1.15;;;6.40;84.00;;;;;;5093714;28;20449;-61
2021/04/11 02:56:30;;;;;;;0.68;0.68;;;6.40;84.00;;;;;;5092754;28;20957;-62
2021/04/11 02:58:57;;;;;;;0.75;0.75;;;6.40;83.70;;;;;;5093846;28;20024;-61
2021/04/11 03:01:37;;;;;;;1.27;0.90;;;6.30;83.50;;;;;;5093983;28;20051;-61
2021/04/11 03:04:03;;;;;;;1.15;1.00;;;6.30;83.90;;;;;;5092993;28;20139;-61
2021/04/11 03:06:36;;;;;;;8.98;1.42;;;6.30;83.90;;;;;;5093798;28;20028;-61
2021/04/11 03:09:13;;;;;;;2.60;1.13;;;6.30;84.20;;;;;;5095135;28;20095;-61
2021/04/11 03:11:47;;;;;;;0.95;0.90;;;6.30;84.30;;;;;;5093080;28;20394;-62
2021/04/11 03:14:21;;;;;;;2.35;1.17;;;6.30;84.20;;;;;;5094869;28;20437;-61
2021/04/11 03:16:53;;;;;;;1.60;1.00;;;6.30;84.40;;;;;;5093690;28;20081;-61
2021/04/11 03:19:27;;;;;;;0.80;0.80;;;6.30;84.50;;;;;;5093899;28;20028;-61
2021/04/11 03:21:54;;;;;;;1.40;0.80;;;6.30;84.60;;;;;;5093572;28;20028;-61
2021/04/11 03:24:21;;;;;;;3.25;1.10;;;6.30;84.70;;;;;;5093794;28;20035;-61
2021/04/11 03:27:06;;;;;;;3.47;1.02;;;6.30;84.60;;;;;;5094912;28;20266;-61
2021/04/11 03:29:38;;;;;;;2.25;1.10;;;6.30;84.40;;;;;;5093150;28;20032;-62
2021/04/11 03:32:10;;;;;;;1.38;0.95;;;6.30;84.40;;;;;;5092678;28;20032;-62
2021/04/11 03:34:42;;;;;;;1.77;1.10;;;6.20;84.40;;;;;;5093183;28;20024;-61
2021/04/11 03:37:11;;;;;;;1.13;1.02;;;6.30;84.50;;;;;;5094708;28;20028;-62
2021/04/11 03:39:37;;;;;;;2.15;1.52;;;6.30;84.50;;;;;;5092175;28;20387;-61
2021/04/11 03:42:10;;;;;;;1.10;1.02;;;6.20;84.50;;;;;;5093103;28;20024;-61
2021/04/11 03:44:38;;;;;;;3.05;1.10;;;6.30;84.50;;;;;;5094434;28;20379;-61
2021/04/11 03:47:13;;;;;;;1.45;1.33;;;6.30;84.70;;;;;;5092329;28;20024;-62
2021/04/11 03:49:54;;;;;;;0.77;0.77;;;6.20;84.70;;;;;;5092884;28;20028;-62
2021/04/11 03:52:55;;;;;;;0.68;0.68;;;6.20;84.70;;;;;;5092729;28;20044;-62
2021/04/11 03:55:25;;;;;;;2.95;0.85;;;6.30;84.60;;;;;;5092609;28;20044;-62
2021/04/11 03:57:59;;;;;;;1.45;1.00;;;6.30;84.50;;;;;;5094090;28;20028;-62
2021/04/11 04:00:51;;;;;;;1.35;1.08;;;6.30;84.60;;;;;;5092167;28;20078;-62
2021/04/11 04:03:20;;;;;;;1.25;0.93;;;6.30;84.60;;;;;;5093385;28;20031;-62
2021/04/11 04:05:49;;;;;;;0.95;0.95;;;6.30;84.80;;;;;;5074070;28;20678;-61
2021/04/11 04:08:15;;;;;;;1.25;1.13;;;6.30;84.80;;;;;;5090305;28;20028;-62
2021/04/11 04:11:03;;;;;;;4.18;1.40;;;6.30;84.90;;;;;;5093412;28;20028;-62
2021/04/11 04:13:56;;;;;;;5.80;1.30;;;6.30;85.10;;;;;;5091775;28;20086;-62
2021/04/11 04:16:49;;;;;;;5.47;1.63;;;6.30;85.10;;;;;;5092381;28;20032;-62
2021/04/11 04:19:27;;;;;;;4.28;1.45;;;6.30;85.00;;;;;;5092287;28;20368;-61
2021/04/11 04:22:11;;;;;;;1.38;0.98;;;6.30;85.40;;;;;;5091327;28;20020;-61
2021/04/11 04:25:27;;;;;;;2.95;0.75;;;6.40;85.60;;;;;;5091949;28;20034;-62
2021/04/11 04:28:31;;;;;;;3.38;0.90;;;6.30;85.20;;;;;;5091332;28;20024;-62
2021/04/11 04:31:18;;;;;;;1.80;1.10;;;6.30;85.10;;;;;;5092073;28;20055;-61
2021/04/11 04:34:09;;;;;;;2.20;1.20;;;6.30;85.30;;;;;;5092119;28;20036;-61
2021/04/11 04:36:46;;;;;;;4.35;1.20;;;6.30;85.40;;;;;;5091208;28;20062;-62
2021/04/11 04:39:27;;;;;;;3.50;1.15;;;6.30;85.30;;;;;;5091920;28;20047;-61
2021/04/11 04:42:33;;;;;;;1.20;1.05;;;6.30;85.20;;;;;;5077906;28;20027;-62
2021/04/11 04:45:12;;;;;;;1.70;1.10;;;6.30;85.30;;;;;;5091887;28;20035;-62
2021/04/11 04:48:23;;;;;;;1.40;0.93;;;6.30;85.30;;;;;;5091979;28;20119;-61
2021/04/11 04:51:13;;;;;;;2.28;1.00;;;6.30;85.40;;;;;;5081009;28;20028;-62
2021/04/11 04:53:56;;;;;;;1.48;1.08;;;6.30;85.40;;;;;;5087832;28;20128;-61
2021/04/11 04:56:37;;;;;;;2.00;1.20;;;6.40;85.40;;;;;;5054268;28;20361;-61
2021/04/11 04:59:16;;;;;;;3.47;1.08;;;6.40;85.60;;;;;;5054801;28;20039;-62
2021/04/11 05:01:49;;;;;;;2.45;0.90;;;6.30;85.50;;;;;;5054690;28;20039;-61
2021/04/11 05:04:24;;;;;;;1.65;0.95;;;6.30;85.50;;;;;;5054142;28;20032;-62
2021/04/11 05:07:09;;;;;;;4.13;1.35;;;6.30;85.50;;;;;;5054738;28;20024;-62
2021/04/11 05:09:48;;;;;;;2.50;1.50;;;6.30;85.50;;;;;;5054691;28;20039;-62
2021/04/11 05:12:59;;;;;;;0.82;0.82;;;6.30;85.50;;;;;;5040670;28;20043;-62
2021/04/11 05:15:38;;;;;;;0.70;0.70;;;6.40;86.00;;;;;;5054235;28;20376;-62
2021/04/11 05:18:23;;;;;;;3.70;1.55;;;6.30;85.20;;;;;;5053924;28;20365;-62
2021/04/11 05:21:10;;;;;;;2.42;1.23;;;6.30;85.50;;;;;;5041087;28;20035;-61
2021/04/11 05:23:51;;;;;;;2.50;1.02;;;6.30;85.50;;;;;;5054434;28;20032;-62
2021/04/11 05:26:22;;;;;;;1.05;0.90;;;6.40;85.40;;;;;;5054460;28;20035;-61
2021/04/11 05:29:11;;;;;;;1.58;1.30;;;6.30;85.40;;;;;;5072739;28;20032;-61
2021/04/11 05:31:38;;;;;;;4.22;1.15;;;6.30;85.40;;;;;;5071701;28;20063;-61
2021/04/11 05:34:06;;;;;;;3.58;1.23;;;6.30;85.30;;;;;;5072413;28;20040;-61
2021/04/11 05:36:50;;;;;;;2.03;0.93;;;6.30;85.50;;;;;;5072245;28;20539;-62
2021/04/11 05:39:35;;;;;;;3.42;1.38;;;6.30;85.60;;;;;;5071861;28;20028;-62
2021/04/11 05:42:23;;;;;;;2.33;1.25;;;6.30;85.40;;;;;;5059383;28;20475;-61
2021/04/11 05:45:06;;;;;;;3.40;1.00;;;6.30;85.30;;;;;;5072112;28;20024;-61
2021/04/11 05:47:51;;;;;;;2.95;2.25;;;6.30;85.40;;;;;;5072523;28;20021;-61
2021/04/11 05:50:25;;;;;;;3.13;1.77;;;6.30;85.40;;;;;;5066946;28;20032;-62
2021/04/11 05:53:20;;;;;;;6.03;1.13;;;6.30;85.40;;;;;;5063814;28;20040;-62
2021/04/11 05:55:53;;;;;;;5.00;1.10;;;6.30;86.10;;;;;;5060241;28;20480;-62
2021/04/11 05:58:23;;;;;;;0.68;0.68;;;6.30;85.40;;;;;;5072282;28;20112;-62
2021/04/11 06:00:53;;;;;;;2.85;1.17;;;6.30;85.40;;;;;;5071448;28;20025;-62
2021/04/11 06:03:23;;;;;;;4.85;0.88;;;6.30;85.50;;;;;;5072172;28;20070;-62
2021/04/11 06:06:07;;;;;;;1.10;0.90;;;6.20;85.50;;;;;;5072203;28;20384;-62
2021/04/11 06:09:01;;;;;;;1.30;0.85;;;6.30;85.60;;;;;;5071975;28;20456;-61
2021/04/11 06:11:55;;;;;;;3.65;1.35;;;6.30;85.40;;;;;;5071879;28;20116;-62
2021/04/11 06:14:45;;;;;;;1.27;0.82;;;6.30;85.30;;;;;;5058454;28;20097;-62
2021/04/11 06:17:12;;;;;;;0.68;0.68;;;6.30;85.40;;;;;;5072107;28;20055;-62
2021/04/11 06:19:43;;;;;;;4.50;1.05;;;6.30;85.40;;;;;;5071957;28;20043;-62
2021/04/11 06:22:24;;;;;;;3.28;1.08;;;6.30;85.30;;;;;;5071280;28;20052;-62
2021/04/11 06:25:09;;;;;;;2.13;0.80;;;6.30;85.40;;;;;;5072979;28;20028;-62
2021/04/11 06:27:51;;;;;;;1.13;0.80;;;6.30;85.30;;;;;;5074710;28;20067;-62
2021/04/11 06:30:25;;;;;;;3.90;1.30;;;6.30;85.30;;;;;;5075591;28;20039;-62
2021/04/11 06:33:02;;;;;;;2.75;1.05;;;6.30;85.10;;;;;;5075205;28;20094;-62
2021/04/11 06:35:39;;;;;;;4.20;1.35;;;6.30;85.20;;;;;;5074710;28;20491;-62
2021/04/11 06:38:09;;;;;;;8.05;1.38;;;6.30;85.20;;;;;;5075173;28;20041;-62
2021/04/11 06:40:41;;;;;;;5.47;1.23;;;6.40;85.10;;;;;;5075537;28;20036;-62
2021/04/11 06:43:24;;;;;;;3.65;1.17;;;6.30;85.00;;;;;;5074355;28;20421;-62
2021/04/11 06:46:19;;;;;;;3.67;1.30;;;6.40;84.90;;;;;;5075273;28;20501;-62
2021/04/11 06:49:13;;;;;;;2.58;1.30;;;6.40;84.80;;;;;;5060458;28;20079;-62
2021/04/11 06:52:02;;;;;;;4.25;1.45;;;6.40;84.80;;;;;;5074962;28;20045;-62
2021/04/11 06:54:46;;;;;;;5.03;1.35;;;6.40;84.80;;;;;;5074683;28;20136;-62
2021/04/11 06:57:33;;;;;;;1.67;1.13;;;6.40;84.70;;;;;;5060652;28;20037;-62
2021/04/11 07:00:11;;;;;;;2.35;1.27;;;6.40;85.10;;;;;;5074856;28;20025;-61
2021/04/11 07:03:08;;;;;;;2.88;1.30;;;6.40;84.50;;;;;;5074340;28;20335;-62
2021/04/11 07:06:12;;;;;;;2.50;1.42;;;6.50;84.50;;;;;;5074787;28;20059;-62
2021/04/11 07:08:57;;;;;;;2.13;1.03;;;6.40;84.40;;;;;;4973588;28;20035;-61
2021/04/11 07:11:54;;;;;;;5.70;1.73;;;6.50;84.40;;;;;;5066887;28;20036;-61
2021/04/11 07:14:26;;;;;;;1.60;0.88;;;6.50;84.40;;;;;;5061887;28;20040;-61
2021/04/11 07:17:18;;;;;;;3.80;1.40;;;6.50;84.20;;;;;;5073964;28;20475;-61
2021/04/11 07:20:19;;;;;;;3.92;1.30;;;6.50;84.30;;;;;;5062595;28;20033;-62
2021/04/11 07:23:06;;;;;;;3.80;0.90;;;6.50;84.30;;;;;;5074090;28;20029;-61
2021/04/11 07:25:57;;;;;;;3.05;1.10;;;6.50;84.20;;;;;;5072467;28;20040;-62
2021/04/11 07:28:56;;;;;;;3.83;0.85;;;6.50;84.20;;;;;;5073957;28;20032;-61
2021/04/11 07:31:39;;;;;;;5.93;1.55;;;6.50;84.30;;;;;;5070486;28;20025;-62
2021/04/11 07:34:25;;;;;;;4.18;2.30;;;6.50;83.80;;;;;;5074231;28;20557;-62
2021/04/11 07:37:02;;;;;;;0.70;0.70;;;6.50;84.00;;;;;;5073037;28;20028;-62
2021/04/11 07:39:44;;;;;;;4.60;1.52;;;6.50;84.20;;;;;;5069312;28;20082;-62
2021/04/11 07:42:29;;;;;;;4.95;1.10;;;6.50;84.20;;;;;;5058717;28;20484;-61
2021/04/11 07:45:23;;;;;;;6.88;1.30;;;6.60;84.90;;;;;;5070140;28;20043;-61
2021/04/11 07:48:28;;;;;;;5.38;1.30;;;6.60;84.10;;;;;;5058571;28;20550;-61
2021/04/11 07:51:12;;;;;;;7.75;1.25;;;6.60;84.10;;;;;;5058942;28;20024;-60
2021/04/11 07:54:05;;;;;;;1.25;0.80;;;6.60;84.10;;;;;;5068395;28;20123;-61
2021/04/11 07:57:00;;;;;;;1.65;1.10;;;6.50;84.00;;;;;;5069869;28;20040;-61
2021/04/11 07:59:38;;;;;;;0.93;0.93;;;6.60;84.20;;;;;;5049253;28;20079;-61
2021/04/11 08:02:28;;;;;;;1.58;1.15;;;6.60;84.10;;;;;;5052892;28;20029;-62
2021/04/11 08:05:11;;;;;;;3.25;0.93;;;6.60;84.20;;;;;;5037177;28;20393;-62
2021/04/11 08:07:43;;;;;;;1.13;0.93;;;6.60;84.10;;;;;;5053289;28;20379;-62
2021/04/11 08:10:25;;;;;;;2.75;1.00;;;6.60;84.10;;;;;;5054843;28;20163;-62
2021/04/11 08:13:00;;;;;;;4.28;1.33;;;6.60;84.20;;;;;;5054386;28;20072;-62
2021/04/11 08:15:58;;;;;;;5.65;1.55;;;6.60;84.20;;;;;;5055338;28;20025;-63
2021/04/11 08:18:53;;;;;;;0.90;0.55;;;6.60;84.20;;;;;;5052451;28;20472;-63
2021/04/11 08:21:32;;;;;;;3.45;1.38;;;6.70;84.30;;;;;;5056676;28;20388;-63
2021/04/11 08:24:00;;;;;;;3.03;0.85;;;6.70;84.30;;;;;;5064966;28;20024;-62
2021/04/11 08:26:54;;;;;;;0.90;0.80;;;6.70;84.00;;;;;;5065144;28;20032;-63
2021/04/11 08:29:38;;;;;;;4.73;1.03;;;6.70;84.00;;;;;;5059188;28;20119;-61
2021/04/11 08:32:35;;;;;;;4.97;1.10;;;6.70;83.70;;;;;;5065402;28;20342;-61
2021/04/11 08:35:32;;;;;;;10.23;2.00;;;6.70;83.70;;;;;;5065191;28;20051;-61
2021/04/11 08:38:24;;;;;;;0.75;0.70;;;6.70;83.70;;;;;;5064160;28;20036;-64
2021/04/11 08:41:27;;;;;;;5.53;1.40;;;6.70;84.00;;;;;;5052270;28;20033;-64
2021/04/11 08:44:14;;;;;;;0.65;0.65;;;6.70;84.20;;;;;;5052337;28;20089;-64
2021/04/11 08:47:01;;;;;;;3.15;1.38;;;6.70;84.10;;;;;;5072134;28;20063;-62
2021/04/11 08:49:54;;;;;;;5.00;1.75;;;6.70;84.00;;;;;;5064591;28;20108;-66
2021/04/11 08:52:42;;;;;;;2.50;0.90;;;6.70;84.20;;;;;;5053223;28;20032;-61
2021/04/11 08:55:32;;;;;;;0.70;0.70;;;6.80;84.40;;;;;;5071378;28;20399;-62
2021/04/11 08:58:13;;;;;;;5.75;1.33;;;6.80;84.50;;;;;;5072803;28;20552;-62
2021/04/11 09:01:09;;;;;;;1.50;0.93;;;6.80;84.40;;;;;;5069427;28;20039;-61
2021/04/11 09:03:57;;;;;;;5.65;1.88;;;6.80;84.10;;;;;;5019174;28;20041;-61
2021/04/11 09:07:04;;;;;;;3.45;0.85;;;6.80;83.60;;;;;;5072222;28;20029;-61
2021/04/11 09:09:55;;;;;;;10.70;1.75;;;6.90;84.20;;;;;;5068907;28;20090;-61
2021/04/11 09:12:42;;;;;;;2.70;0.90;;;6.90;83.80;;;;;;5069447;28;20395;-61
2021/04/11 09:15:29;;;;;;;1.00;0.90;;;6.90;83.90;;;;;;5072110;28;20378;-61
2021/04/11 09:18:26;;;;;;;4.03;1.17;;;6.90;84.00;;;;;;5069421;28;20032;-61
2021/04/11 09:21:30;;;;;;;1.92;0.73;;;7.00;84.10;;;;;;5071203;28;20024;-61
2021/04/11 09:24:23;;;;;;;1.15;0.95;;;7.00;83.70;;;;;;5069418;28;20472;-63
2021/04/11 09:27:28;;;;;;;0.52;0.52;;;7.00;83.70;;;;;;5061289;28;20029;-61
2021/04/11 09:30:21;;;;;;;2.17;1.02;;;7.10;83.90;;;;;;5056261;28;20020;-61
2021/04/11 09:33:04;;;;;;;5.00;1.15;;;7.10;83.40;;;;;;5070260;28;20029;-61
2021/04/11 09:36:05;;;;;;;1.45;1.08;;;7.20;83.00;;;;;;5069043;28;20032;-61
2021/04/11 09:38:53;;;;;;;3.80;1.42;;;7.20;83.20;;;;;;5015037;28;20127;-61
2021/04/11 09:41:41;;;;;;;3.20;1.05;;;7.20;83.20;;;;;;5071620;28;20020;-62
2021/04/11 09:44:13;;;;;;;5.90;1.17;;;7.20;83.20;;;;;;5021145;28;20098;-61
2021/04/11 09:46:44;;;;;;;1.60;1.10;;;7.20;83.30;;;;;;5064412;28;20025;-64
2021/04/11 09:49:31;;;;;;;4.22;2.17;;;7.30;83.00;;;;;;5062384;28;20546;-62
2021/04/11 09:52:36;;;;;;;1.67;0.90;;;7.30;82.70;;;;;;5068420;28;20020;-62
2021/04/11 09:55:20;;;;;;;2.60;1.08;;;7.30;82.70;;;;;;5047719;28;20045;-61
2021/04/11 09:58:35;;;;;;;1.27;1.17;;;7.40;82.70;;;;;;5061589;28;20037;-62
2021/04/11 10:01:08;;;;;;;;;;;7.40;83.00;;;;;;5063799;28;20062;-61
2021/04/11 10:04:10;;;;;;;3.97;1.23;;;7.40;82.90;;;;;;5074629;28;19995;-61
2021/04/11 10:06:54;;;;;;;2.05;1.00;;;7.50;82.60;;;;;;5073368;28;20117;-60
2021/04/11 10:09:38;;;;;;;0.70;0.65;;;7.50;82.70;;;;;;5074636;28;20032;-61
2021/04/11 10:12:38;;;;;;;0.73;0.73;;;7.50;82.60;;;;;;5074853;28;20104;-62
2021/04/11 10:15:09;;;;;;;2.83;1.77;;;7.50;82.70;;;;;;5038002;28;20446;-61
2021/04/11 10:18:03;;;;;;;3.30;1.30;;;7.50;82.60;;;;;;5072651;28;20471;-61
2021/04/11 10:20:54;;;;;;;2.40;0.80;;;7.60;83.20;;;;;;5068351;28;20103;-61
2021/04/11 10:23:35;;;;;;;2.38;1.27;;;7.50;82.90;;;;;;5066101;28;20047;-61
2021/04/11 10:26:12;;;;;;;4.45;1.20;;;7.60;82.80;;;;;;5074483;28;20071;-61
2021/04/11 10:28:58;;;;;;;8.98;1.50;;;7.60;82.90;;;;;;5066274;28;20793;-60
2021/04/11 10:31:31;;;;;;;2.78;1.20;;;7.60;82.90;;;;;;5059943;28;20484;-61
2021/04/11 10:34:14;;;;;;;6.43;0.93;;;7.60;82.80;;;;;;5072434;28;20480;-61
2021/04/11 10:36:53;;;;;;;2.22;1.13;;;7.70;82.70;;;;;;5072973;28;20055;-61
2021/04/11 10:39:44;;;;;;;6.15;1.10;;;7.70;82.60;;;;;;5074517;28;20103;-61
2021/04/11 10:42:44;;;;;;;3.22;1.13;;;7.70;82.40;;;;;;5064531;28;20024;-61
2021/04/11 10:45:19;;;;;;;1.17;0.70;;;7.80;82.40;;;;;;5005447;28;20107;-61
2021/04/11 10:48:17;;;;;;;3.75;1.35;;;7.80;82.50;;;;;;5070959;28;20029;-61
2021/04/11 10:51:05;;;;;;;5.93;1.50;;;7.80;82.50;;;;;;5056111;28;20037;-61
2021/04/11 10:53:55;;;;;;;3.45;1.00;;;7.80;82.30;;;;;;5072063;28;20032;-61
2021/04/11 10:56:45;;;;;;;3.53;1.13;;;7.90;82.30;;;;;;5073110;28;20032;-61
2021/04/11 10:59:40;;;;;;;3.33;0.90;;;7.80;82.00;;;;;;5062858;28;20036;-62
2021/04/11 11:02:24;;;;;;;;;;;7.90;82.10;;;;;;5063519;28;20044;-74
2021/04/11 11:05:27;;;;;;;2.33;1.00;;;7.90;82.10;;;;;;5063210;28;19995;-62
2021/04/11 11:07:57;;;;;;;5.93;0.98;;;8.00;82.10;;;;;;5020281;28;20463;-62
2021/04/11 11:10:56;;;;;;;2.08;1.10;;;8.00;82.00;;;;;;5069526;28;20391;-62
2021/04/11 11:14:10;;;;;;;3.90;1.20;;;8.00;82.10;;;;;;5072959;28;20043;-62
2021/04/11 11:17:03;;;;;;;1.00;1.00;;;8.00;82.40;;;;;;5022237;28;20040;-62
2021/04/11 11:19:49;;;;;;;2.97;1.07;;;8.00;81.70;;;;;;5071450;28;20029;-62
2021/04/11 11:22:41;;;;;;;3.70;0.88;;;8.00;81.40;;;;;;5072809;28;20275;-62
2021/04/11 11:25:17;;;;;;;3.58;0.82;;;8.10;81.40;;;;;;5058885;28;20036;-61
2021/04/11 11:28:01;;;;;;;4.32;0.50;;;8.10;81.40;;;;;;5065330;28;20037;-61
2021/04/11 11:30:44;;;;;;;2.08;1.05;;;8.10;81.60;;;;;;5061218;28;20487;-62
2021/04/11 11:33:19;;;;;;;1.30;1.00;;;8.10;81.60;;;;;;5069684;28;20128;-62
2021/04/11 11:35:55;;;;;;;2.65;0.90;;;8.20;81.70;;;;;;5064006;28;20494;-62
2021/04/11 11:38:39;;;;;;;0.95;0.80;;;8.10;81.80;;;;;;5071541;28;20021;-62
2021/04/11 11:41:28;;;;;;;3.97;1.27;;;8.20;81.70;;;;;;5071788;28;20033;-62
2021/04/11 11:44:17;;;;;;;5.50;1.00;;;8.20;81.10;;;;;;5069782;28;20035;-62
2021/04/11 11:47:24;;;;;;;1.63;0.70;;;8.20;81.30;;;;;;5070002;28;20028;-62
2021/04/11 11:50:06;;;;;;;6.05;1.00;;;8.20;81.40;;;;;;5017794;28;20044;-62
2021/04/11 11:52:43;;;;;;;2.08;1.02;;;8.20;81.30;;;;;;5067972;28;20118;-62
2021/04/11 11:55:27;;;;;;;2.33;1.27;;;8.20;81.60;;;;;;5075332;28;20053;-60
2021/04/11 11:58:13;;;;;;;3.10;1.08;;;8.20;81.60;;;;;;5071303;28;20037;-64
2021/04/11 12:00:45;;;;;;;1.92;1.05;;;8.20;81.60;;;;;;5062123;28;20479;-63
2021/04/11 12:03:31;;;;;;;1.75;1.02;;;8.20;81.70;;;;;;5072103;28;20052;-62
2021/04/11 12:06:15;;;;;;;4.18;1.10;;;8.20;81.70;;;;;;5063251;28;20028;-61
2021/04/11 12:09:06;;;;;;;6.80;1.70;;;8.30;81.60;;;;;;5068535;28;20089;-61
2021/04/11 12:11:32;;;;;;;12.80;1.00;;;8.30;81.00;;;;;;5064482;28;20039;-61
2021/04/11 12:14:35;;;;;;;6.93;0.90;;;8.30;80.80;;;;;;5066254;28;20123;-61
2021/04/11 12:17:22;;;;;;;2.45;1.10;;;8.40;80.80;;;;;;5065132;28;20028;-60
2021/04/11 12:19:59;;;;;;;1.02;0.60;;;8.40;80.50;;;;;;5070812;28;20550;-61
2021/04/11 12:23:12;;;;;;;1.10;1.10;;;8.50;80.50;;;;;;5071477;28;20043;-62
2021/04/11 12:25:38;;;;;;;0.68;0.68;;;8.50;80.40;;;;;;5057183;28;20551;-63
2021/04/11 12:28:25;;;;;;;2.50;1.10;;;8.50;80.60;;;;;;5070983;28;20033;-62
2021/04/11 12:30:53;;;;;;;9.10;1.30;;;8.60;80.50;;;;;;5071413;28;20111;-62
2021/04/11 12:33:57;;;;;;;2.20;0.60;;;8.60;80.40;;;;;;5069445;28;20537;-62
2021/04/11 12:36:44;;;;;;;3.20;1.23;;;8.60;80.40;;;;;;5041234;28;20048;-62
2021/04/11 12:39:21;;;;;;;2.67;0.73;;;8.60;80.30;;;;;;5070996;28;20037;-62
2021/04/11 12:41:48;;;;;;;2.47;1.02;;;8.60;79.90;;;;;;5052169;28;20021;-62
2021/04/11 12:44:18;;;;;;;4.38;0.93;;;8.60;80.10;;;;;;5071067;28;20380;-62
2021/04/11 12:47:21;;;;;;;1.85;1.10;;;8.70;80.30;;;;;;5070628;28;20017;-62
2021/04/11 12:50:04;;;;;;;2.97;1.45;;;8.80;80.10;;;;;;5070802;28;20021;-62
2021/04/11 12:52:51;;;;;;;3.42;0.60;;;8.80;79.10;;;;;;5069827;28;20491;-62
2021/04/11 12:55:35;;;;;;;6.35;1.23;;;8.80;80.00;;;;;;5069647;28;20129;-62
2021/04/11 12:58:06;;;;;;;2.70;1.05;;;8.70;80.10;;;;;;5070827;28;20081;-62
2021/04/11 13:00:46;;;;;;;1.55;0.63;;;8.80;80.20;;;;;;5070607;28;20040;-62
2021/04/11 13:03:19;;;;;;;2.95;1.10;;;8.80;80.20;;;;;;5069997;28;20020;-63
2021/04/11 13:05:52;;;;;;;2.67;1.20;;;8.80;80.20;;;;;;5068635;28;20029;-64
2021/04/11 13:08:39;;;;;;;0.73;0.60;;;8.90;80.30;;;;;;5061223;28;20071;-61
2021/04/11 13:11:21;;;;;;;0.57;0.57;;;8.80;80.60;;;;;;5067202;28;20028;-61
2021/04/11 13:14:07;;;;;;;2.33;0.80;;;8.80;80.40;;;;;;5070777;28;20048;-61
2021/04/11 13:16:41;;;;;;;1.02;0.77;;;8.80;80.70;;;;;;5070114;28;20037;-61
2021/04/11 13:19:22;;;;;;;0.98;0.88;;;8.80;80.70;;;;;;5070529;28;20052;-61
2021/04/11 13:22:13;;;;;;;1.45;0.80;;;8.90;80.70;;;;;;5070630;28;20032;-61
2021/04/11 13:24:57;;;;;;;0.55;0.55;;;8.90;81.00;;;;;;5069029;28;20039;-61
2021/04/11 13:27:34;;;;;;;3.63;0.90;;;8.90;81.10;;;;;;5071554;28;20032;-61
2021/04/11 13:30:10;;;;;;;5.28;1.27;;;9.00;81.00;;;;;;5056251;28;20037;-62
2021/04/11 13:32:48;;;;;;;1.90;0.73;;;9.00;80.80;;;;;;5040837;28;20070;-61
2021/04/11 13:35:25;;;;;;;4.65;1.35;;;9.00;80.60;;;;;;5067772;28;20056;-62
2021/04/11 13:38:00;;;;;;;2.10;1.15;;;9.10;80.20;;;;;;5071471;28;20040;-62
2021/04/11 13:40:30;;;;;;;3.58;1.50;;;9.10;80.70;;;;;;5074952;28;20079;-63
2021/04/11 13:43:17;;;;;;;1.67;0.60;;;9.10;80.60;;;;;;5073529;28;20134;-62
2021/04/11 13:45:51;;;;;;;3.78;0.57;;;9.10;80.50;;;;;;5074610;28;20082;-62
2021/04/11 13:48:28;;;;;;;1.13;0.52;;;9.20;80.50;;;;;;5074715;28;20123;-61
2021/04/11 13:50:57;;;;;;;1.42;0.75;;;9.10;80.60;;;;;;5073192;28;20069;-61
2021/04/11 13:54:00;;;;;;;0.68;0.68;;;9.20;80.50;;;;;;5074681;28;20462;-62
2021/04/11 13:56:44;;;;;;;2.78;0.63;;;9.20;80.30;;;;;;5074402;28;20076;-62
2021/04/11 13:59:16;;;;;;;;;;;9.30;81.10;;;;;;5064971;28;20029;-61
2021/04/11 14:01:52;;;;;;;0.38;0.38;;;9.30;80.20;;;;;;5074519;28;20007;-61
2021/04/11 14:04:28;;;;;;;5.05;1.23;;;9.30;80.40;;;;;;5074293;28;20036;-62
2021/04/11 14:07:20;;;;;;;5.15;1.23;;;9.30;80.60;;;;;;5070034;28;20037;-62
2021/04/11 14:10:34;;;;;;;2.00;0.60;;;9.30;81.20;;;;;;5074691;28;20086;-62